Time;durP1;ratioP1;P1;durP2;ratioP2;P2;SDS_P1;SDS_P2;PMS_P1;PMS_P2;Temp;Humidity;BMP_temperature;BMP_pressure;BME280_temperature;BME280_humidity;BME280_pressure;Samples;Min_cycle;Max_cycle;Signal;HPM_P1;HPM_P2
2021/01/23 00:00:24;;;;;;;9.13;4.10;;;6.20;99.90;;;;;;6182143;23;20635;-78
2021/01/23 00:02:50;;;;;;;3.33;3.00;;;6.20;99.90;;;;;;6156445;23;20173;-79
2021/01/23 00:05:16;;;;;;;3.73;3.30;;;6.20;99.90;;;;;;6182882;23;20524;-78
2021/01/23 00:07:42;;;;;;;7.83;3.37;;;6.20;99.90;;;;;;6182217;23;20549;-78
2021/01/23 00:10:08;;;;;;;5.30;4.03;;;6.20;99.90;;;;;;6155866;23;20620;-78
2021/01/23 00:12:34;;;;;;;4.47;3.28;;;6.20;99.90;;;;;;6156273;23;20564;-78
2021/01/23 00:15:00;;;;;;;4.70;4.30;;;6.20;99.90;;;;;;6182488;23;20176;-78
2021/01/23 00:17:25;;;;;;;5.17;4.47;;;6.20;99.90;;;;;;6155708;23;20137;-78
2021/01/23 00:19:51;;;;;;;6.87;4.57;;;6.20;99.90;;;;;;6182745;23;20153;-78
2021/01/23 00:22:17;;;;;;;4.70;4.00;;;6.20;99.90;;;;;;6182254;23;20192;-78
2021/01/23 00:24:43;;;;;;;9.03;4.60;;;6.20;99.90;;;;;;6156446;23;20521;-78
2021/01/23 00:27:08;;;;;;;6.33;4.60;;;6.20;99.90;;;;;;6131665;23;20545;-78
2021/01/23 00:29:34;;;;;;;6.57;4.87;;;6.10;99.90;;;;;;6181579;23;20176;-78
2021/01/23 00:32:00;;;;;;;6.27;5.30;;;6.10;99.90;;;;;;6182298;23;20667;-78
2021/01/23 00:34:27;;;;;;;5.30;4.47;;;6.10;99.90;;;;;;6182465;23;20142;-78
2021/01/23 00:36:53;;;;;;;7.17;4.47;;;6.10;99.90;;;;;;6182382;23;20169;-79
2021/01/23 00:39:19;;;;;;;6.20;5.60;;;6.00;99.90;;;;;;6182149;23;20146;-79
2021/01/23 00:41:55;;;;;;;7.88;4.38;;;6.00;99.90;;;;;;6180725;23;20950;-79
2021/01/23 00:44:21;;;;;;;4.82;4.32;;;6.00;99.90;;;;;;6182153;23;20155;-78
2021/01/23 00:46:47;;;;;;;4.27;3.87;;;5.90;99.90;;;;;;6182450;23;20153;-79
2021/01/23 00:49:13;;;;;;;7.13;3.45;;;5.90;99.90;;;;;;6155350;23;21403;-78
2021/01/23 00:51:39;;;;;;;4.67;3.20;;;5.80;99.90;;;;;;6155646;23;20168;-78
2021/01/23 00:54:10;;;;;;;5.07;3.85;;;5.80;99.90;;;;;;6182299;23;20482;-79
2021/01/23 00:56:38;;;;;;;4.80;3.63;;;5.80;99.90;;;;;;6155904;23;20161;-78
2021/01/23 00:59:04;;;;;;;4.57;3.25;;;5.80;99.90;;;;;;6181552;23;20149;-78
2021/01/23 01:01:31;;;;;;;4.07;3.50;;;5.80;99.90;;;;;;6155601;23;20150;-78
2021/01/23 01:03:57;;;;;;;3.72;3.15;;;5.80;99.90;;;;;;6155450;23;20142;-78
2021/01/23 01:06:23;;;;;;;5.17;3.43;;;5.70;99.90;;;;;;6155792;23;20161;-78
2021/01/23 01:08:49;;;;;;;7.90;3.80;;;5.70;99.90;;;;;;6181620;23;20537;-78
2021/01/23 01:11:15;;;;;;;4.93;3.83;;;5.70;99.90;;;;;;6180316;23;21137;-78
2021/01/23 01:13:40;;;;;;;3.50;3.20;;;5.70;99.90;;;;;;6156399;23;20271;-78
2021/01/23 01:16:06;;;;;;;9.50;4.40;;;5.70;99.90;;;;;;6184541;23;20525;-78
2021/01/23 01:18:32;;;;;;;4.80;4.30;;;5.70;99.90;;;;;;6180951;23;20177;-78
2021/01/23 01:20:58;;;;;;;4.40;4.00;;;5.60;99.90;;;;;;6182904;23;20521;-78
2021/01/23 01:23:23;;;;;;;6.37;5.20;;;5.60;99.90;;;;;;6155466;23;21162;-78
2021/01/23 01:25:49;;;;;;;6.03;3.43;;;5.60;99.90;;;;;;6181588;23;20646;-78
2021/01/23 01:28:15;;;;;;;6.33;4.57;;;5.60;99.90;;;;;;6181453;23;20156;-78
2021/01/23 01:30:41;;;;;;;6.07;3.83;;;5.60;99.90;;;;;;6155075;23;20181;-78
2021/01/23 01:33:09;;;;;;;4.63;3.50;;;5.60;99.90;;;;;;6181994;23;20576;-78
2021/01/23 01:35:35;;;;;;;3.63;3.25;;;5.60;99.90;;;;;;6182225;23;20601;-78
2021/01/23 01:38:01;;;;;;;4.63;4.22;;;5.60;99.90;;;;;;6130661;23;20145;-78
2021/01/23 01:40:27;;;;;;;5.57;4.03;;;5.60;99.90;;;;;;6181799;23;20154;-78
2021/01/23 01:42:55;;;;;;;5.20;3.13;;;5.60;99.90;;;;;;6181512;23;20170;-78
2021/01/23 01:45:20;;;;;;;5.55;4.38;;;5.60;99.90;;;;;;6182441;23;20146;-78
2021/01/23 01:47:47;;;;;;;7.60;4.20;;;5.50;99.90;;;;;;6181211;23;20544;-78
2021/01/23 01:50:13;;;;;;;3.20;2.88;;;5.60;99.90;;;;;;6181235;23;20620;-78
2021/01/23 01:52:44;;;;;;;4.38;3.35;;;5.50;99.90;;;;;;6155353;23;20177;-78
2021/01/23 01:55:13;;;;;;;4.32;3.00;;;5.60;99.90;;;;;;6181631;23;20158;-78
2021/01/23 01:57:39;;;;;;;4.32;3.35;;;5.50;99.90;;;;;;6155764;23;20158;-78
2021/01/23 02:00:07;;;;;;;6.00;4.53;;;5.60;99.90;;;;;;6181640;23;20145;-78
2021/01/23 02:03:12;;;;;;;4.30;3.90;;;5.60;99.90;;;;;;6180212;23;20253;-78
2021/01/23 02:05:48;;;;;;;3.70;3.30;;;5.60;99.90;;;;;;6181833;23;20138;-79
2021/01/23 02:08:28;;;;;;;6.18;4.22;;;5.50;99.90;;;;;;6155128;23;20645;-78
2021/01/23 02:11:09;;;;;;;5.10;4.55;;;5.50;99.90;;;;;;6179554;23;20205;-78
2021/01/23 02:13:44;;;;;;;5.20;3.85;;;5.50;99.90;;;;;;6179936;23;20165;-78
2021/01/23 02:16:17;;;;;;;5.05;4.55;;;5.50;99.90;;;;;;6182957;23;20568;-78
2021/01/23 02:19:08;;;;;;;7.03;3.90;;;5.40;99.90;;;;;;6183096;23;20183;-78
2021/01/23 02:22:04;;;;;;;6.05;4.20;;;5.40;99.90;;;;;;6182714;23;20154;-78
2021/01/23 02:24:31;;;;;;;8.35;5.07;;;5.40;99.90;;;;;;6183675;23;20134;-78
2021/01/23 02:27:28;;;;;;;5.60;3.90;;;5.40;99.90;;;;;;6182120;23;20596;-78
2021/01/23 02:30:18;;;;;;;10.02;4.22;;;5.40;99.90;;;;;;6157341;23;20190;-78
2021/01/23 02:32:49;;;;;;;4.63;3.92;;;5.40;99.90;;;;;;6157375;23;20168;-78
2021/01/23 02:35:16;;;;;;;7.22;3.85;;;5.30;99.90;;;;;;6186497;23;20133;-78
2021/01/23 02:37:43;;;;;;;13.18;4.95;;;5.40;99.90;;;;;;6156678;23;20245;-78
2021/01/23 02:40:09;;;;;;;4.70;4.10;;;5.40;99.90;;;;;;6183012;23;20536;-79
2021/01/23 02:42:35;;;;;;;6.45;4.05;;;5.30;99.90;;;;;;6183461;23;20170;-79
2021/01/23 02:45:02;;;;;;;5.33;4.00;;;5.30;99.90;;;;;;6157325;23;20150;-78
2021/01/23 02:47:27;;;;;;;4.63;3.92;;;5.30;99.90;;;;;;6156748;23;20525;-78
2021/01/23 02:49:53;;;;;;;6.80;5.23;;;5.30;99.90;;;;;;6183223;23;20205;-78
2021/01/23 02:52:57;;;;;;;8.20;4.30;;;5.30;99.90;;;;;;6182931;23;20638;-78
2021/01/23 02:55:28;;;;;;;5.35;4.72;;;5.30;99.90;;;;;;6183370;23;20157;-78
2021/01/23 02:57:56;;;;;;;4.43;3.70;;;5.30;99.90;;;;;;6182729;23;20776;-78
2021/01/23 03:00:22;;;;;;;5.03;3.28;;;5.30;99.90;;;;;;6157046;23;20236;-78
2021/01/23 03:02:55;;;;;;;5.20;3.33;;;5.30;99.90;;;;;;6183106;23;20281;-78
2021/01/23 03:05:32;;;;;;;4.28;3.25;;;5.30;99.90;;;;;;6132704;23;20161;-78
2021/01/23 03:07:58;;;;;;;8.32;3.95;;;5.30;99.90;;;;;;6182522;23;20137;-78
2021/01/23 03:10:38;;;;;;;4.37;3.80;;;5.30;99.90;;;;;;6156701;23;20170;-78
2021/01/23 03:13:05;;;;;;;7.18;5.00;;;5.30;99.90;;;;;;6158210;23;20161;-78
2021/01/23 03:15:32;;;;;;;5.15;3.92;;;5.20;99.90;;;;;;6156832;23;20146;-78
2021/01/23 03:17:58;;;;;;;4.70;4.20;;;5.20;99.90;;;;;;6182659;23;20146;-78
2021/01/23 03:20:26;;;;;;;5.82;5.00;;;5.10;99.90;;;;;;6183002;23;20185;-78
2021/01/23 03:22:53;;;;;;;5.43;4.22;;;5.10;99.90;;;;;;6183027;23;20181;-79
2021/01/23 03:25:19;;;;;;;4.28;3.55;;;5.00;99.90;;;;;;6132348;23;20177;-78
2021/01/23 03:27:44;;;;;;;6.60;4.50;;;5.00;99.90;;;;;;6182491;23;20146;-78
2021/01/23 03:30:10;;;;;;;3.90;3.50;;;5.00;99.90;;;;;;6156488;23;20232;-78
2021/01/23 03:32:36;;;;;;;4.25;3.85;;;4.90;99.90;;;;;;6156742;23;20170;-78
2021/01/23 03:35:06;;;;;;;4.70;4.23;;;4.90;99.90;;;;;;6183236;23;20146;-78
2021/01/23 03:37:33;;;;;;;4.40;4.00;;;4.80;99.90;;;;;;6182147;23;20528;-78
2021/01/23 03:40:00;;;;;;;4.35;3.60;;;4.80;99.90;;;;;;6182999;23;20600;-79
2021/01/23 03:42:26;;;;;;;4.90;3.13;;;4.80;99.90;;;;;;6182702;23;20174;-78
2021/01/23 03:44:51;;;;;;;6.10;3.90;;;4.70;99.90;;;;;;6183045;23;20237;-79
2021/01/23 03:47:17;;;;;;;5.47;3.87;;;4.70;99.90;;;;;;6156401;23;20571;-79
2021/01/23 03:49:43;;;;;;;5.77;4.37;;;4.70;99.90;;;;;;6183693;23;20573;-79
2021/01/23 03:52:09;;;;;;;4.27;2.67;;;4.70;99.90;;;;;;6186532;23;20627;-79
2021/01/23 03:54:34;;;;;;;3.73;3.00;;;4.70;99.90;;;;;;6183146;23;20165;-78
2021/01/23 03:57:00;;;;;;;4.50;3.30;;;4.70;99.90;;;;;;6132147;23;20557;-78
2021/01/23 03:59:26;;;;;;;3.70;3.37;;;4.70;99.90;;;;;;6182317;23;20592;-78
2021/01/23 04:01:52;;;;;;;4.53;3.30;;;4.70;99.90;;;;;;6156319;23;20564;-78
2021/01/23 04:04:18;;;;;;;3.97;3.00;;;4.70;99.90;;;;;;6182905;23;20157;-78
2021/01/23 04:06:44;;;;;;;4.47;4.07;;;4.80;99.90;;;;;;6182603;23;21058;-78
2021/01/23 04:09:10;;;;;;;4.65;3.80;;;4.80;99.90;;;;;;6182026;23;20169;-78
2021/01/23 04:11:36;;;;;;;4.10;3.43;;;4.80;99.90;;;;;;6182468;23;20585;-78
2021/01/23 04:14:02;;;;;;;7.35;4.40;;;4.80;99.90;;;;;;6182851;23;20145;-78
2021/01/23 04:16:28;;;;;;;3.30;3.10;;;4.80;99.90;;;;;;6182726;23;20150;-78
2021/01/23 04:18:54;;;;;;;3.83;3.20;;;4.80;99.90;;;;;;6155944;23;20165;-78
2021/01/23 04:21:20;;;;;;;5.90;3.47;;;4.80;99.90;;;;;;6182047;23;20595;-78
2021/01/23 04:23:45;;;;;;;4.13;2.33;;;4.80;99.90;;;;;;6182682;23;20169;-78
2021/01/23 04:26:11;;;;;;;5.83;4.17;;;4.80;99.90;;;;;;6156657;23;20521;-78
2021/01/23 04:28:37;;;;;;;5.35;3.70;;;4.80;99.90;;;;;;6156798;23;20153;-78
2021/01/23 04:31:03;;;;;;;4.70;3.50;;;4.80;99.90;;;;;;6182195;23;20635;-78
2021/01/23 04:33:29;;;;;;;5.80;4.28;;;4.80;99.90;;;;;;6182687;23;20572;-78
2021/01/23 04:35:55;;;;;;;4.18;3.55;;;4.80;99.90;;;;;;6182314;23;20177;-78
2021/01/23 04:38:21;;;;;;;5.73;4.10;;;4.80;99.90;;;;;;6181473;23;20161;-78
2021/01/23 04:40:47;;;;;;;4.97;3.77;;;4.80;99.90;;;;;;6181997;23;20536;-78
2021/01/23 04:43:13;;;;;;;4.87;2.63;;;4.80;99.90;;;;;;6182122;23;21201;-79
2021/01/23 04:45:39;;;;;;;3.60;2.83;;;4.90;99.90;;;;;;6182447;23;20544;-78
2021/01/23 04:48:06;;;;;;;4.10;3.25;;;4.90;99.90;;;;;;6155653;23;20564;-78
2021/01/23 04:50:32;;;;;;;5.55;4.10;;;4.90;99.90;;;;;;6155588;23;20181;-78
2021/01/23 04:52:58;;;;;;;4.32;3.92;;;4.90;99.90;;;;;;6183130;23;20181;-80
2021/01/23 04:55:23;;;;;;;4.87;3.43;;;4.90;99.90;;;;;;6183145;23;20711;-80
2021/01/23 04:57:49;;;;;;;4.10;3.60;;;4.90;99.90;;;;;;6182934;23;20544;-80
2021/01/23 05:00:15;;;;;;;5.73;4.47;;;4.90;99.90;;;;;;6183763;23;20146;-80
2021/01/23 05:02:41;;;;;;;4.00;3.45;;;4.90;99.90;;;;;;6186505;23;20877;-80
2021/01/23 05:05:08;;;;;;;6.40;4.40;;;5.00;99.90;;;;;;6157768;23;20212;-80
2021/01/23 05:07:39;;;;;;;4.78;4.15;;;4.90;99.90;;;;;;6158440;23;20525;-80
2021/01/23 05:10:14;;;;;;;5.68;4.40;;;4.90;99.90;;;;;;6184454;23;20157;-80
2021/01/23 05:12:47;;;;;;;5.43;4.78;;;4.90;99.90;;;;;;6165821;23;20166;-80
2021/01/23 05:15:19;;;;;;;7.95;4.60;;;5.00;99.90;;;;;;6165905;23;20142;-81
2021/01/23 05:17:59;;;;;;;4.32;3.53;;;4.90;99.90;;;;;;6191981;23;20580;-81
2021/01/23 05:20:28;;;;;;;5.95;4.32;;;5.00;99.90;;;;;;6166088;23;20627;-81
2021/01/23 05:22:54;;;;;;;4.22;3.83;;;5.00;99.90;;;;;;6161047;23;20220;-81
2021/01/23 05:25:20;;;;;;;4.53;4.10;;;5.00;99.90;;;;;;6158875;23;20149;-81
2021/01/23 05:28:09;;;;;;;4.80;4.40;;;5.00;99.90;;;;;;6141897;23;20545;-81
2021/01/23 05:30:40;;;;;;;4.38;3.75;;;5.00;99.90;;;;;;6185020;23;20184;-81
2021/01/23 05:33:11;;;;;;;5.22;3.80;;;5.00;99.90;;;;;;6186542;23;20189;-80
2021/01/23 05:35:38;;;;;;;5.47;4.85;;;5.10;99.90;;;;;;6187550;23;20130;-80
2021/01/23 05:38:19;;;;;;;5.60;4.47;;;5.00;99.90;;;;;;6160057;23;20172;-80
2021/01/23 05:40:45;;;;;;;5.55;4.97;;;5.10;99.90;;;;;;6160012;23;20589;-80
2021/01/23 05:43:11;;;;;;;4.47;3.93;;;5.10;99.90;;;;;;6180644;23;20180;-80
2021/01/23 05:45:47;;;;;;;4.87;4.30;;;5.10;99.90;;;;;;6184996;23;20533;-81
2021/01/23 05:48:13;;;;;;;5.65;3.70;;;5.10;99.90;;;;;;6155578;23;20545;-81
2021/01/23 05:50:39;;;;;;;9.20;6.13;;;5.20;99.90;;;;;;6155498;23;20577;-81
2021/01/23 05:53:04;;;;;;;5.03;4.43;;;5.10;99.90;;;;;;6155435;23;20173;-81
2021/01/23 05:55:30;;;;;;;5.03;3.30;;;5.20;99.90;;;;;;6182312;23;20142;-81
2021/01/23 05:57:57;;;;;;;3.77;3.40;;;5.20;99.90;;;;;;6182599;23;20469;-81
2021/01/23 06:00:24;;;;;;;7.13;4.97;;;5.20;99.90;;;;;;6182218;23;20145;-81
2021/01/23 06:02:51;;;;;;;5.05;4.38;;;5.20;99.90;;;;;;6182520;23;20176;-81
2021/01/23 06:05:17;;;;;;;7.85;4.90;;;5.20;99.90;;;;;;6182581;23;20181;-80
2021/01/23 06:07:47;;;;;;;4.93;4.50;;;5.20;99.90;;;;;;6182638;23;20145;-81
2021/01/23 06:10:37;;;;;;;5.90;5.07;;;5.20;99.90;;;;;;6181165;23;20188;-80
2021/01/23 06:13:04;;;;;;;5.93;4.80;;;5.10;99.90;;;;;;6142398;23;20169;-81
2021/01/23 06:15:33;;;;;;;4.75;3.75;;;5.00;99.90;;;;;;6155795;23;20199;-81
2021/01/23 06:17:59;;;;;;;5.57;5.00;;;5.00;99.90;;;;;;6181221;23;20141;-81
2021/01/23 06:20:40;;;;;;;4.93;4.35;;;5.00;99.90;;;;;;6182576;23;20599;-81
2021/01/23 06:23:07;;;;;;;4.25;3.85;;;5.00;99.90;;;;;;6182847;23;20170;-80
2021/01/23 06:25:51;;;;;;;7.50;5.68;;;5.00;99.90;;;;;;6182983;23;20213;-80
2021/01/23 06:28:26;;;;;;;7.70;4.63;;;5.00;99.90;;;;;;6157288;23;20161;-80
2021/01/23 06:30:52;;;;;;;4.65;4.25;;;5.00;99.90;;;;;;6182210;23;20177;-81
2021/01/23 06:33:39;;;;;;;4.57;3.88;;;5.10;99.90;;;;;;6181813;23;20162;-81
2021/01/23 06:36:10;;;;;;;4.30;3.90;;;5.10;99.90;;;;;;6156309;23;20127;-80
2021/01/23 06:38:37;;;;;;;4.72;3.63;;;5.20;99.90;;;;;;6156398;23;20160;-81
2021/01/23 06:41:25;;;;;;;5.35;4.43;;;5.20;99.90;;;;;;6182318;23;20154;-80
2021/01/23 06:44:06;;;;;;;4.45;3.30;;;5.20;99.90;;;;;;6155568;23;20168;-80
2021/01/23 06:46:32;;;;;;;7.55;4.57;;;5.20;99.90;;;;;;6181546;23;20208;-80
2021/01/23 06:49:05;;;;;;;4.68;4.22;;;5.30;99.90;;;;;;6181189;23;20177;-80
2021/01/23 06:51:31;;;;;;;5.47;4.50;;;5.30;99.90;;;;;;6155035;23;20161;-79
2021/01/23 06:54:20;;;;;;;11.40;4.25;;;5.30;99.90;;;;;;6159847;23;20137;-79
2021/01/23 06:56:53;;;;;;;5.68;4.82;;;5.30;99.90;;;;;;6189027;23;20146;-79
2021/01/23 06:59:30;;;;;;;4.72;4.32;;;5.30;99.90;;;;;;6188374;23;20130;-80
2021/01/23 07:02:03;;;;;;;4.40;4.00;;;5.40;99.90;;;;;;6191647;23;20176;-80
2021/01/23 07:04:33;;;;;;;4.93;4.15;;;5.40;99.90;;;;;;6191382;23;20162;-80
2021/01/23 07:07:00;;;;;;;4.95;4.03;;;5.40;99.90;;;;;;6194498;23;20148;-81
2021/01/23 07:09:44;;;;;;;5.55;3.80;;;5.50;99.90;;;;;;6170636;23;20165;-80
2021/01/23 07:12:11;;;;;;;5.13;4.63;;;5.50;99.90;;;;;;6139030;23;20170;-80
2021/01/23 07:14:36;;;;;;;5.15;4.25;;;5.60;99.90;;;;;;6164208;23;20168;-80
2021/01/23 07:17:02;;;;;;;6.60;5.20;;;5.60;99.90;;;;;;6189501;23;20146;-79
2021/01/23 07:19:28;;;;;;;6.27;5.03;;;5.60;99.90;;;;;;6161595;23;20526;-79
2021/01/23 07:21:55;;;;;;;7.50;4.30;;;5.60;99.90;;;;;;6192539;23;20166;-79
2021/01/23 07:24:21;;;;;;;5.35;3.70;;;5.60;99.90;;;;;;6149280;23;20164;-78
2021/01/23 07:26:47;;;;;;;4.78;4.07;;;5.60;99.90;;;;;;6198863;23;20447;-79
2021/01/23 07:29:13;;;;;;;7.27;4.53;;;5.70;99.90;;;;;;6196957;23;20157;-79
2021/01/23 07:31:39;;;;;;;5.72;5.13;;;5.70;99.90;;;;;;6171903;23;20595;-79
2021/01/23 07:34:12;;;;;;;6.40;4.23;;;5.70;99.90;;;;;;6190990;23;20142;-77
2021/01/23 07:36:43;;;;;;;3.75;3.33;;;5.70;99.90;;;;;;6159109;23;20545;-78
2021/01/23 07:39:10;;;;;;;3.80;3.35;;;5.70;99.90;;;;;;6132167;23;20607;-78
2021/01/23 07:41:38;;;;;;;3.30;2.90;;;5.80;99.90;;;;;;6170314;23;20142;-78
2021/01/23 07:44:05;;;;;;;4.05;3.35;;;5.80;99.90;;;;;;6172134;23;20145;-79
2021/01/23 07:46:50;;;;;;;4.10;3.30;;;5.80;99.90;;;;;;6164928;23;20177;-79
2021/01/23 07:49:28;;;;;;;5.13;3.35;;;5.90;99.90;;;;;;6188458;23;20133;-77
2021/01/23 07:52:07;;;;;;;3.50;3.17;;;5.90;99.90;;;;;;6197157;23;20209;-78
2021/01/23 07:54:33;;;;;;;4.22;3.83;;;5.90;99.90;;;;;;6191682;23;20161;-78
2021/01/23 07:56:59;;;;;;;3.65;2.90;;;5.90;99.90;;;;;;6168141;23;20192;-78
2021/01/23 07:59:48;;;;;;;4.38;3.47;;;5.90;99.90;;;;;;6194359;23;20142;-78
2021/01/23 08:02:16;;;;;;;3.10;2.80;;;6.00;99.90;;;;;;6191321;23;20177;-78
2021/01/23 08:04:46;;;;;;;4.30;3.30;;;6.00;99.90;;;;;;6199162;23;20663;-78
2021/01/23 08:07:32;;;;;;;4.80;4.20;;;6.00;99.90;;;;;;6170951;23;20161;-78
2021/01/23 08:10:07;;;;;;;4.40;3.90;;;6.00;99.90;;;;;;6198754;23;20154;-78
2021/01/23 08:12:33;;;;;;;4.22;3.65;;;6.10;99.90;;;;;;6170282;23;20169;-78
2021/01/23 08:14:59;;;;;;;4.15;3.75;;;6.10;99.90;;;;;;6191865;23;20153;-78
2021/01/23 08:17:44;;;;;;;4.85;3.78;;;6.20;99.90;;;;;;6182495;23;20204;-78
2021/01/23 08:20:16;;;;;;;4.50;3.72;;;6.20;99.90;;;;;;6185872;23;20146;-79
2021/01/23 08:23:06;;;;;;;5.85;4.50;;;6.20;99.90;;;;;;6203977;23;20169;-78
2021/01/23 08:25:35;;;;;;;3.97;3.58;;;6.30;99.90;;;;;;6206365;23;20145;-79
2021/01/23 08:28:02;;;;;;;6.05;4.35;;;6.30;99.90;;;;;;6182558;23;20146;-79
2021/01/23 08:30:28;;;;;;;7.05;4.40;;;6.30;99.90;;;;;;6206686;23;20168;-79
2021/01/23 08:32:54;;;;;;;5.97;5.40;;;6.40;99.90;;;;;;6176184;23;20168;-80
2021/01/23 08:35:22;;;;;;;5.45;4.38;;;6.40;99.90;;;;;;6161463;23;20277;-77
2021/01/23 08:37:48;;;;;;;6.80;3.95;;;6.40;99.90;;;;;;6187608;23;20228;-78
2021/01/23 08:40:23;;;;;;;5.05;4.22;;;6.40;99.90;;;;;;6197589;23;20146;-79
2021/01/23 08:42:50;;;;;;;7.53;5.38;;;6.40;99.90;;;;;;6172502;23;20169;-79
2021/01/23 08:45:18;;;;;;;4.70;4.25;;;6.40;99.90;;;;;;6142133;23;20154;-78
2021/01/23 08:47:43;;;;;;;5.65;4.38;;;6.50;99.90;;;;;;6190955;23;20181;-78
2021/01/23 08:50:10;;;;;;;5.13;4.57;;;6.60;99.90;;;;;;6190302;23;20174;-79
2021/01/23 08:52:36;;;;;;;5.60;4.80;;;6.60;99.90;;;;;;6192792;23;20185;-78
2021/01/23 08:55:05;;;;;;;5.18;4.68;;;6.50;99.90;;;;;;6191577;23;20624;-78
2021/01/23 08:57:32;;;;;;;5.38;4.88;;;6.50;99.90;;;;;;6141116;23;20703;-78
2021/01/23 08:59:58;;;;;;;5.80;5.18;;;6.60;99.90;;;;;;6193079;23;20156;-78
2021/01/23 09:02:23;;;;;;;8.60;5.43;;;6.60;99.90;;;;;;6191841;23;20616;-78
2021/01/23 09:04:49;;;;;;;5.43;4.93;;;6.60;99.90;;;;;;6168764;23;20534;-78
2021/01/23 09:07:15;;;;;;;5.65;4.95;;;6.60;99.90;;;;;;6193752;23;20533;-78
2021/01/23 09:09:41;;;;;;;6.80;5.20;;;6.60;99.90;;;;;;6192137;23;20173;-78
2021/01/23 09:12:08;;;;;;;8.73;5.00;;;6.70;99.90;;;;;;6165389;23;20608;-78
2021/01/23 09:14:34;;;;;;;5.72;4.60;;;6.70;99.90;;;;;;6194876;23;20518;-78
2021/01/23 09:17:00;;;;;;;6.38;5.15;;;6.80;99.90;;;;;;6123018;23;20158;-78
2021/01/23 09:19:29;;;;;;;6.00;5.40;;;6.80;99.90;;;;;;6140800;23;20211;-78
2021/01/23 09:21:54;;;;;;;5.60;4.40;;;6.80;99.90;;;;;;6165308;23;20711;-78
2021/01/23 09:24:20;;;;;;;6.13;5.47;;;6.90;99.90;;;;;;6196027;23;20150;-78
2021/01/23 09:26:46;;;;;;;9.40;6.30;;;7.00;99.90;;;;;;6194902;23;20220;-78
2021/01/23 09:29:12;;;;;;;5.40;4.70;;;7.00;99.90;;;;;;6193962;23;20585;-78
2021/01/23 09:31:38;;;;;;;7.87;5.70;;;7.10;99.90;;;;;;6197613;23;20142;-79
2021/01/23 09:34:04;;;;;;;6.45;5.40;;;7.10;99.90;;;;;;6166881;23;20513;-78
2021/01/23 09:36:30;;;;;;;5.63;5.00;;;7.20;99.90;;;;;;6140655;23;20531;-78
2021/01/23 09:38:56;;;;;;;4.90;4.40;;;7.20;99.90;;;;;;6191466;23;20517;-78
2021/01/23 09:41:22;;;;;;;5.68;4.65;;;7.20;99.90;;;;;;6190241;23;20517;-78
2021/01/23 09:43:48;;;;;;;5.37;4.80;;;7.30;99.90;;;;;;6191200;23;20150;-77
2021/01/23 09:46:14;;;;;;;6.80;6.03;;;7.40;99.90;;;;;;6191000;23;20521;-78
2021/01/23 09:48:40;;;;;;;5.30;3.93;;;7.40;99.90;;;;;;6191599;23;20153;-78
2021/01/23 09:51:06;;;;;;;4.20;3.73;;;7.50;99.90;;;;;;6166728;23;20573;-78
2021/01/23 09:53:32;;;;;;;7.03;5.00;;;7.60;99.90;;;;;;6191177;23;20631;-78
2021/01/23 09:55:57;;;;;;;5.80;5.20;;;7.80;99.90;;;;;;6189308;23;20514;-78
2021/01/23 09:58:23;;;;;;;6.70;5.77;;;7.80;99.90;;;;;;6186797;23;20201;-78
2021/01/23 10:00:52;;;;;;;7.45;6.35;;;7.80;99.90;;;;;;6186772;23;20142;-78
2021/01/23 10:03:18;;;;;;;5.82;5.32;;;7.80;99.90;;;;;;6189584;23;20170;-78
2021/01/23 10:05:44;;;;;;;4.70;4.20;;;7.90;99.90;;;;;;6163565;23;20145;-79
2021/01/23 10:08:10;;;;;;;5.20;4.75;;;8.00;99.90;;;;;;6191286;23;20190;-78
2021/01/23 10:10:36;;;;;;;5.57;3.80;;;8.10;99.90;;;;;;6160423;23;20161;-78
2021/01/23 10:13:02;;;;;;;4.70;4.13;;;8.20;99.90;;;;;;6188571;23;20220;-78
2021/01/23 10:15:29;;;;;;;6.40;5.80;;;8.30;99.90;;;;;;6185133;23;20684;-78
2021/01/23 10:17:55;;;;;;;6.55;5.45;;;8.40;99.90;;;;;;6158359;23;20561;-78
2021/01/23 10:20:20;;;;;;;6.40;4.83;;;8.40;99.90;;;;;;6184347;23;20224;-78
2021/01/23 10:22:46;;;;;;;8.00;5.47;;;8.50;99.90;;;;;;6186071;23;20592;-78
2021/01/23 10:25:12;;;;;;;4.93;4.43;;;8.50;99.90;;;;;;6136729;23;20529;-77
2021/01/23 10:27:39;;;;;;;4.60;4.07;;;8.60;99.90;;;;;;6186674;23;20493;-78
2021/01/23 10:30:06;;;;;;;6.20;4.00;;;8.70;99.90;;;;;;6186939;23;20897;-78
2021/01/23 10:32:32;;;;;;;6.30;3.65;;;8.70;99.90;;;;;;6140947;23;20523;-77
2021/01/23 10:34:58;;;;;;;4.40;4.00;;;8.90;99.90;;;;;;6183394;23;20142;-77
2021/01/23 10:41:15;;;;;;;4.45;4.05;;;9.10;99.90;;;;;;6045434;23;20166;-78
2021/01/23 10:43:50;;;;;;;5.55;4.40;;;9.20;99.90;;;;;;6160230;23;20683;-78
2021/01/23 10:46:19;;;;;;;3.30;3.00;;;9.20;99.90;;;;;;6118781;23;20150;-78
2021/01/23 10:48:48;;;;;;;5.18;3.97;;;9.40;99.90;;;;;;6135723;23;20150;-78
2021/01/23 10:51:48;;;;;;;3.85;3.33;;;9.40;99.90;;;;;;6164194;23;20208;-78
2021/01/23 10:54:16;;;;;;;4.15;3.75;;;9.40;99.90;;;;;;6159182;23;20153;-79
2021/01/23 10:56:42;;;;;;;3.72;3.20;;;9.50;99.90;;;;;;6157156;23;20230;-79
2021/01/23 10:59:08;;;;;;;3.00;2.70;;;9.50;99.90;;;;;;6182876;23;20280;-80
2021/01/23 11:01:34;;;;;;;4.15;2.55;;;9.60;99.90;;;;;;6182988;23;20146;-80
2021/01/23 11:04:02;;;;;;;3.90;3.00;;;9.60;99.90;;;;;;6157936;23;20174;-79
2021/01/23 11:06:28;;;;;;;3.30;2.67;;;9.70;99.90;;;;;;6182992;23;20898;-79
2021/01/23 11:08:54;;;;;;;4.13;2.67;;;9.70;99.90;;;;;;6182857;23;20525;-79
2021/01/23 11:11:20;;;;;;;2.77;2.37;;;9.80;99.90;;;;;;6183257;23;21161;-79
2021/01/23 11:13:46;;;;;;;2.60;1.90;;;9.80;99.90;;;;;;6157031;23;20196;-79
2021/01/23 11:16:12;;;;;;;3.90;2.40;;;9.80;99.90;;;;;;6157069;23;20540;-79
2021/01/23 11:18:37;;;;;;;3.00;2.10;;;9.80;99.90;;;;;;6156390;23;20525;-79
2021/01/23 11:21:04;;;;;;;2.87;2.60;;;9.90;99.90;;;;;;6156836;23;20828;-80
2021/01/23 11:23:30;;;;;;;3.50;3.20;;;9.90;99.90;;;;;;6160210;23;20680;-80
2021/01/23 11:25:56;;;;;;;3.63;2.53;;;9.90;99.90;;;;;;6158675;23;20176;-80
2021/01/23 11:28:25;;;;;;;3.87;1.93;;;9.90;99.90;;;;;;6183170;23;20528;-80
2021/01/23 11:30:53;;;;;;;3.08;1.92;;;10.00;99.90;;;;;;6107875;23;20533;-81
2021/01/23 11:33:25;;;;;;;2.60;1.30;;;10.10;99.90;;;;;;6132625;23;20174;-80
2021/01/23 11:35:54;;;;;;;1.80;1.38;;;10.20;99.90;;;;;;6180302;23;20180;-80
2021/01/23 11:38:22;;;;;;;2.95;0.98;;;10.20;99.90;;;;;;6182689;23;20591;-80
2021/01/23 11:41:00;;;;;;;1.80;1.60;;;10.20;99.90;;;;;;6159125;23;20157;-80
2021/01/23 11:43:31;;;;;;;4.70;1.00;;;10.30;99.90;;;;;;6183138;23;20510;-79
2021/01/23 11:46:03;;;;;;;3.33;1.25;;;10.40;99.90;;;;;;6132104;23;20186;-80
2021/01/23 11:48:42;;;;;;;2.20;1.20;;;10.40;99.90;;;;;;6158936;23;20510;-79
2021/01/23 11:51:08;;;;;;;2.17;1.07;;;10.50;99.90;;;;;;6182469;23;20229;-81
2021/01/23 11:53:34;;;;;;;1.33;0.90;;;10.60;99.90;;;;;;6182791;23;20580;-80
2021/01/23 11:56:00;;;;;;;2.00;1.27;;;10.70;99.90;;;;;;6156539;23;20580;-79
2021/01/23 11:58:43;;;;;;;1.80;0.90;;;10.80;99.90;;;;;;6157762;23;20509;-80
2021/01/23 12:01:12;;;;;;;1.50;0.80;;;10.80;99.90;;;;;;6160648;23;20150;-80
2021/01/23 12:03:38;;;;;;;2.50;0.90;;;10.90;99.90;;;;;;6185425;23;20602;-80
2021/01/23 12:06:05;;;;;;;1.38;0.80;;;11.00;99.90;;;;;;6107503;23;20637;-80
2021/01/23 12:08:30;;;;;;;1.40;0.80;;;11.10;99.90;;;;;;6131486;23;20154;-80
2021/01/23 12:10:59;;;;;;;1.80;1.00;;;11.20;99.90;;;;;;6132110;23;20173;-81
2021/01/23 12:13:27;;;;;;;2.88;1.67;;;11.30;99.90;;;;;;6182949;23;20212;-80
2021/01/23 12:15:57;;;;;;;3.20;1.52;;;11.30;99.90;;;;;;6108631;23;20156;-79
2021/01/23 12:18:23;;;;;;;6.60;4.10;;;11.40;99.90;;;;;;6182218;23;20146;-81
2021/01/23 12:20:52;;;;;;;3.07;1.70;;;11.40;99.90;;;;;;6182405;23;20580;-80
2021/01/23 12:23:18;;;;;;;3.17;1.20;;;11.40;99.90;;;;;;6183047;23;20952;-80
2021/01/23 12:25:44;;;;;;;2.25;1.40;;;11.40;99.90;;;;;;6181711;23;20763;-78
2021/01/23 12:28:10;;;;;;;3.97;1.13;;;11.40;99.90;;;;;;6181001;23;20684;-78
2021/01/23 12:30:37;;;;;;;2.85;1.08;;;11.40;99.90;;;;;;6155317;23;20704;-81
2021/01/23 12:33:03;;;;;;;2.85;1.00;;;11.30;99.90;;;;;;6131231;23;20169;-79
2021/01/23 12:35:28;;;;;;;1.70;0.90;;;11.30;99.90;;;;;;6182771;23;20157;-78
2021/01/23 12:38:01;;;;;;;2.17;0.85;;;11.30;99.90;;;;;;6158932;23;20486;-78
2021/01/23 12:40:28;;;;;;;2.50;0.90;;;11.30;99.90;;;;;;6196150;23;20212;-79
2021/01/23 12:42:54;;;;;;;2.45;1.00;;;11.20;99.90;;;;;;6181274;23;20619;-80
2021/01/23 12:45:23;;;;;;;1.40;0.90;;;11.20;99.90;;;;;;6157191;23;20154;-78
2021/01/23 12:47:48;;;;;;;3.77;1.00;;;11.30;99.90;;;;;;6180673;23;20299;-80
2021/01/23 12:50:17;;;;;;;3.83;1.00;;;11.30;99.90;;;;;;6182152;23;20177;-80
2021/01/23 12:52:43;;;;;;;1.40;0.77;;;11.30;99.90;;;;;;6156481;23;20174;-79
2021/01/23 12:55:10;;;;;;;5.33;1.20;;;11.40;99.90;;;;;;6156579;23;20507;-79
2021/01/23 12:57:39;;;;;;;2.47;1.80;;;11.50;99.90;;;;;;6181664;23;20521;-80
2021/01/23 13:00:07;;;;;;;1.60;0.95;;;11.50;99.90;;;;;;6155417;23;20567;-80
2021/01/23 13:02:35;;;;;;;2.38;0.98;;;11.60;99.90;;;;;;6181623;23;20165;-79
2021/01/23 13:05:03;;;;;;;3.00;1.95;;;11.60;99.90;;;;;;6182115;23;20608;-80
2021/01/23 13:07:32;;;;;;;2.30;1.08;;;11.70;99.90;;;;;;6181761;23;20216;-80